sensor_id;sensor_type;location;lat;lon;timestamp;pressure;altitude;pressure_sealevel;temperature;humidity
61898;BME280;47850;50.274;18.908;2022-08-19T00:00:36;97564.29;;;22.52;66.55
61898;BME280;47850;50.274;18.908;2022-08-19T00:03:04;97564.19;;;22.48;66.98
61898;BME280;47850;50.274;18.908;2022-08-19T00:05:31;97564.53;;;22.46;67.00
61898;BME280;47850;50.274;18.908;2022-08-19T00:07:58;97565.42;;;22.43;67.12
61898;BME280;47850;50.274;18.908;2022-08-19T00:10:24;97563.63;;;22.40;66.86
61898;BME280;47850;50.274;18.908;2022-08-19T00:12:51;97567.94;;;22.38;67.15
61898;BME280;47850;50.274;18.908;2022-08-19T00:15:20;97569.14;;;22.35;67.42
61898;BME280;47850;50.274;18.908;2022-08-19T00:17:48;97569.86;;;22.33;67.51
61898;BME280;47850;50.274;18.908;2022-08-19T00:20:18;97574.74;;;22.29;67.69
61898;BME280;47850;50.274;18.908;2022-08-19T00:22:46;97568.42;;;22.27;68.13
61898;BME280;47850;50.274;18.908;2022-08-19T00:25:15;97565.91;;;22.24;67.89
61898;BME280;47850;50.274;18.908;2022-08-19T00:27:41;97559.20;;;22.21;68.34
61898;BME280;47850;50.274;18.908;2022-08-19T00:30:11;97556.39;;;22.18;68.48
61898;BME280;47850;50.274;18.908;2022-08-19T00:32:38;97552.53;;;22.14;68.53
61898;BME280;47850;50.274;18.908;2022-08-19T00:35:05;97549.70;;;22.11;68.62
61898;BME280;47850;50.274;18.908;2022-08-19T00:37:32;97543.23;;;22.08;68.73
61898;BME280;47850;50.274;18.908;2022-08-19T00:40:03;97541.42;;;22.07;69.18
61898;BME280;47850;50.274;18.908;2022-08-19T00:42:30;97548.08;;;22.06;68.63
61898;BME280;47850;50.274;18.908;2022-08-19T00:44:57;97543.29;;;22.03;68.93
61898;BME280;47850;50.274;18.908;2022-08-19T00:47:24;97539.34;;;22.00;69.15
61898;BME280;47850;50.274;18.908;2022-08-19T00:49:54;97545.48;;;21.96;69.42
61898;BME280;47850;50.274;18.908;2022-08-19T00:52:44;97537.45;;;21.90;69.56
61898;BME280;47850;50.274;18.908;2022-08-19T00:55:23;97538.61;;;21.86;69.90
61898;BME280;47850;50.274;18.908;2022-08-19T00:58:01;97536.58;;;21.82;70.12
61898;BME280;47850;50.274;18.908;2022-08-19T01:00:31;97536.33;;;21.82;70.31
61898;BME280;47850;50.274;18.908;2022-08-19T01:03:09;97534.54;;;21.80;70.09
61898;BME280;47850;50.274;18.908;2022-08-19T01:05:36;97532.58;;;21.77;70.53
61898;BME280;47850;50.274;18.908;2022-08-19T01:08:06;97533.54;;;21.75;70.39
61898;BME280;47850;50.274;18.908;2022-08-19T01:10:40;97532.53;;;21.73;70.76
61898;BME280;47850;50.274;18.908;2022-08-19T01:13:08;97531.52;;;21.71;70.60
61898;BME280;47850;50.274;18.908;2022-08-19T01:15:42;97532.23;;;21.70;70.96
61898;BME280;47850;50.274;18.908;2022-08-19T01:18:14;97529.79;;;21.69;70.97
61898;BME280;47850;50.274;18.908;2022-08-19T01:20:42;97528.93;;;21.68;71.08
61898;BME280;47850;50.274;18.908;2022-08-19T01:23:09;97522.84;;;21.66;70.98
61898;BME280;47850;50.274;18.908;2022-08-19T01:28:07;97524.06;;;21.62;71.30
61898;BME280;47850;50.274;18.908;2022-08-19T01:30:35;97522.57;;;21.60;71.37
61898;BME280;47850;50.274;18.908;2022-08-19T01:33:02;97526.00;;;21.57;71.55
61898;BME280;47850;50.274;18.908;2022-08-19T01:35:32;97530.45;;;21.54;71.85
61898;BME280;47850;50.274;18.908;2022-08-19T01:38:03;97526.51;;;21.50;71.78
61898;BME280;47850;50.274;18.908;2022-08-19T01:40:36;97524.17;;;21.45;72.29
61898;BME280;47850;50.274;18.908;2022-08-19T01:43:04;97524.36;;;21.41;72.24
61898;BME280;47850;50.274;18.908;2022-08-19T01:45:33;97522.89;;;21.37;72.34
61898;BME280;47850;50.274;18.908;2022-08-19T01:48:00;97519.59;;;21.33;72.67
61898;BME280;47850;50.274;18.908;2022-08-19T01:50:27;97522.07;;;21.29;72.60
61898;BME280;47850;50.274;18.908;2022-08-19T01:52:54;97520.19;;;21.27;72.84
61898;BME280;47850;50.274;18.908;2022-08-19T01:55:21;97522.66;;;21.23;73.54
61898;BME280;47850;50.274;18.908;2022-08-19T01:57:58;97516.13;;;21.19;73.81
61898;BME280;47850;50.274;18.908;2022-08-19T02:00:28;97518.27;;;21.17;73.82
61898;BME280;47850;50.274;18.908;2022-08-19T02:02:55;97510.84;;;21.15;73.64
61898;BME280;47850;50.274;18.908;2022-08-19T02:05:23;97515.05;;;21.13;73.86
61898;BME280;47850;50.274;18.908;2022-08-19T02:07:52;97513.95;;;21.11;74.02
61898;BME280;47850;50.274;18.908;2022-08-19T02:10:21;97515.23;;;21.09;74.16
61898;BME280;47850;50.274;18.908;2022-08-19T02:12:48;97513.17;;;21.07;74.29
61898;BME280;47850;50.274;18.908;2022-08-19T02:15:17;97516.05;;;21.06;74.23
61898;BME280;47850;50.274;18.908;2022-08-19T02:17:46;97517.73;;;21.05;74.55
61898;BME280;47850;50.274;18.908;2022-08-19T02:20:13;97511.23;;;21.03;74.51
61898;BME280;47850;50.274;18.908;2022-08-19T02:22:41;97516.23;;;21.01;74.42
61898;BME280;47850;50.274;18.908;2022-08-19T02:25:13;97514.59;;;21.00;74.47
61898;BME280;47850;50.274;18.908;2022-08-19T02:27:41;97512.68;;;20.99;74.38
61898;BME280;47850;50.274;18.908;2022-08-19T02:30:12;97514.11;;;20.98;74.36
61898;BME280;47850;50.274;18.908;2022-08-19T02:32:40;97512.77;;;20.98;74.81
61898;BME280;47850;50.274;18.908;2022-08-19T02:35:08;97506.77;;;20.96;74.69
61898;BME280;47850;50.274;18.908;2022-08-19T02:37:35;97505.41;;;20.95;74.74
61898;BME280;47850;50.274;18.908;2022-08-19T02:40:20;97507.58;;;20.93;74.73
61898;BME280;47850;50.274;18.908;2022-08-19T02:42:47;97505.98;;;20.91;74.82
61898;BME280;47850;50.274;18.908;2022-08-19T02:45:15;97506.23;;;20.90;74.68
61898;BME280;47850;50.274;18.908;2022-08-19T02:47:41;97511.39;;;20.90;74.84
61898;BME280;47850;50.274;18.908;2022-08-19T02:50:09;97510.59;;;20.91;74.82
61898;BME280;47850;50.274;18.908;2022-08-19T02:52:36;97507.83;;;20.90;74.86
61898;BME280;47850;50.274;18.908;2022-08-19T02:55:03;97503.87;;;20.89;74.94
61898;BME280;47850;50.274;18.908;2022-08-19T02:57:31;97500.94;;;20.88;75.00
61898;BME280;47850;50.274;18.908;2022-08-19T02:59:59;97500.77;;;20.88;74.92
61898;BME280;47850;50.274;18.908;2022-08-19T03:02:27;97501.50;;;20.87;75.00
61898;BME280;47850;50.274;18.908;2022-08-19T03:04:54;97503.80;;;20.87;75.13
61898;BME280;47850;50.274;18.908;2022-08-19T03:07:20;97505.95;;;20.86;75.35
61898;BME280;47850;50.274;18.908;2022-08-19T03:09:47;97510.08;;;20.86;75.23
61898;BME280;47850;50.274;18.908;2022-08-19T03:12:13;97507.15;;;20.84;75.05
61898;BME280;47850;50.274;18.908;2022-08-19T03:14:40;97509.36;;;20.83;75.10
61898;BME280;47850;50.274;18.908;2022-08-19T03:17:07;97512.15;;;20.81;75.23
61898;BME280;47850;50.274;18.908;2022-08-19T03:19:34;97506.86;;;20.78;75.51
61898;BME280;47850;50.274;18.908;2022-08-19T03:22:01;97504.66;;;20.74;75.68
61898;BME280;47850;50.274;18.908;2022-08-19T03:24:28;97505.46;;;20.72;75.76
61898;BME280;47850;50.274;18.908;2022-08-19T03:26:55;97500.46;;;20.71;75.82
61898;BME280;47850;50.274;18.908;2022-08-19T03:29:26;97498.95;;;20.71;76.19
61898;BME280;47850;50.274;18.908;2022-08-19T03:31:53;97496.17;;;20.70;76.49
61898;BME280;47850;50.274;18.908;2022-08-19T03:34:25;97498.09;;;20.69;76.03
61898;BME280;47850;50.274;18.908;2022-08-19T03:36:57;97507.35;;;20.69;75.79
61898;BME280;47850;50.274;18.908;2022-08-19T03:39:25;97511.63;;;20.67;76.15
61898;BME280;47850;50.274;18.908;2022-08-19T03:41:53;97517.89;;;20.66;75.85
61898;BME280;47850;50.274;18.908;2022-08-19T03:44:23;97524.61;;;20.66;75.78
61898;BME280;47850;50.274;18.908;2022-08-19T03:46:54;97517.59;;;20.65;75.94
61898;BME280;47850;50.274;18.908;2022-08-19T03:49:23;97519.49;;;20.65;75.95
61898;BME280;47850;50.274;18.908;2022-08-19T03:51:50;97521.85;;;20.65;75.50
61898;BME280;47850;50.274;18.908;2022-08-19T03:54:20;97523.11;;;20.66;75.87
61898;BME280;47850;50.274;18.908;2022-08-19T03:56:51;97526.90;;;20.67;75.82
61898;BME280;47850;50.274;18.908;2022-08-19T03:59:23;97529.74;;;20.69;75.46
61898;BME280;47850;50.274;18.908;2022-08-19T04:01:56;97531.88;;;20.71;75.52
61898;BME280;47850;50.274;18.908;2022-08-19T04:04:23;97533.56;;;20.72;75.20
61898;BME280;47850;50.274;18.908;2022-08-19T04:06:51;97539.41;;;20.74;75.02
61898;BME280;47850;50.274;18.908;2022-08-19T04:09:19;97543.13;;;20.75;74.99
61898;BME280;47850;50.274;18.908;2022-08-19T04:11:49;97546.69;;;20.77;74.86
61898;BME280;47850;50.274;18.908;2022-08-19T04:14:19;97547.72;;;20.78;74.81
61898;BME280;47850;50.274;18.908;2022-08-19T04:16:47;97547.93;;;20.80;74.87
61898;BME280;47850;50.274;18.908;2022-08-19T04:19:16;97543.02;;;20.83;74.52
61898;BME280;47850;50.274;18.908;2022-08-19T04:21:46;97545.84;;;20.88;74.48
61898;BME280;47850;50.274;18.908;2022-08-19T04:24:13;97555.07;;;20.94;74.21
61898;BME280;47850;50.274;18.908;2022-08-19T04:26:41;97558.13;;;21.00;74.04
61898;BME280;47850;50.274;18.908;2022-08-19T04:29:10;97564.02;;;21.08;73.65
61898;BME280;47850;50.274;18.908;2022-08-19T04:31:37;97566.27;;;21.18;73.60
61898;BME280;47850;50.274;18.908;2022-08-19T04:34:06;97569.84;;;21.29;73.06
61898;BME280;47850;50.274;18.908;2022-08-19T04:36:36;97572.23;;;21.39;72.89
61898;BME280;47850;50.274;18.908;2022-08-19T04:39:07;97581.59;;;21.48;72.41
61898;BME280;47850;50.274;18.908;2022-08-19T04:41:34;97580.70;;;21.59;71.99
61898;BME280;47850;50.274;18.908;2022-08-19T04:44:21;97586.79;;;21.69;71.72
61898;BME280;47850;50.274;18.908;2022-08-19T04:46:49;97589.41;;;21.77;71.41
61898;BME280;47850;50.274;18.908;2022-08-19T04:49:18;97589.02;;;21.86;71.12
61898;BME280;47850;50.274;18.908;2022-08-19T04:51:46;97582.86;;;21.94;70.70
61898;BME280;47850;50.274;18.908;2022-08-19T04:54:17;97577.30;;;22.02;70.50
61898;BME280;47850;50.274;18.908;2022-08-19T04:56:43;97574.80;;;22.08;70.06
61898;BME280;47850;50.274;18.908;2022-08-19T04:59:10;97579.56;;;22.15;70.17
61898;BME280;47850;50.274;18.908;2022-08-19T05:01:37;97583.23;;;22.22;69.88
61898;BME280;47850;50.274;18.908;2022-08-19T05:04:05;97576.75;;;22.28;69.68
61898;BME280;47850;50.274;18.908;2022-08-19T05:06:33;97573.51;;;22.34;69.29
61898;BME280;47850;50.274;18.908;2022-08-19T05:09:04;97570.70;;;22.39;69.01
61898;BME280;47850;50.274;18.908;2022-08-19T05:11:34;97567.25;;;22.43;68.90
61898;BME280;47850;50.274;18.908;2022-08-19T05:14:01;97574.48;;;22.48;68.52
61898;BME280;47850;50.274;18.908;2022-08-19T05:16:28;97581.04;;;22.54;68.42
61898;BME280;47850;50.274;18.908;2022-08-19T05:18:55;97578.80;;;22.61;68.50
61898;BME280;47850;50.274;18.908;2022-08-19T05:21:42;97581.52;;;22.72;67.99
61898;BME280;47850;50.274;18.908;2022-08-19T05:24:28;97579.10;;;22.82;67.81
61898;BME280;47850;50.274;18.908;2022-08-19T05:26:56;97577.33;;;22.91;67.53
61898;BME280;47850;50.274;18.908;2022-08-19T05:29:25;97580.05;;;23.02;67.30
61898;BME280;47850;50.274;18.908;2022-08-19T05:31:53;97583.25;;;23.12;67.01
61898;BME280;47850;50.274;18.908;2022-08-19T05:34:23;97583.80;;;23.20;66.74
61898;BME280;47850;50.274;18.908;2022-08-19T05:36:55;97583.56;;;23.26;66.52
61898;BME280;47850;50.274;18.908;2022-08-19T05:39:27;97590.33;;;23.31;66.42
61898;BME280;47850;50.274;18.908;2022-08-19T05:42:00;97595.67;;;23.35;66.36
61898;BME280;47850;50.274;18.908;2022-08-19T05:44:30;97597.18;;;23.40;66.05
61898;BME280;47850;50.274;18.908;2022-08-19T05:47:03;97603.80;;;23.45;66.04
61898;BME280;47850;50.274;18.908;2022-08-19T05:49:31;97600.16;;;23.50;65.67
61898;BME280;47850;50.274;18.908;2022-08-19T05:52:03;97594.48;;;23.52;65.54
61898;BME280;47850;50.274;18.908;2022-08-19T05:54:31;97593.90;;;23.53;65.34
61898;BME280;47850;50.274;18.908;2022-08-19T05:56:58;97597.38;;;23.54;65.15
61898;BME280;47850;50.274;18.908;2022-08-19T05:59:24;97597.30;;;23.54;65.13
61898;BME280;47850;50.274;18.908;2022-08-19T06:01:52;97596.48;;;23.56;65.13
61898;BME280;47850;50.274;18.908;2022-08-19T06:04:22;97596.63;;;23.57;64.99
61898;BME280;47850;50.274;18.908;2022-08-19T06:06:51;97602.39;;;23.60;64.64
61898;BME280;47850;50.274;18.908;2022-08-19T06:09:18;97601.04;;;23.65;64.68
61898;BME280;47850;50.274;18.908;2022-08-19T06:11:48;97599.32;;;23.68;64.62
61898;BME280;47850;50.274;18.908;2022-08-19T06:14:16;97600.58;;;23.75;64.51
61898;BME280;47850;50.274;18.908;2022-08-19T06:16:44;97599.60;;;23.81;64.35
61898;BME280;47850;50.274;18.908;2022-08-19T06:19:14;97598.10;;;23.85;63.80
61898;BME280;47850;50.274;18.908;2022-08-19T06:21:44;97601.20;;;23.89;63.93
61898;BME280;47850;50.274;18.908;2022-08-19T06:24:15;97603.29;;;23.95;63.79
61898;BME280;47850;50.274;18.908;2022-08-19T06:26:44;97608.69;;;24.00;63.82
61898;BME280;47850;50.274;18.908;2022-08-19T06:29:12;97610.95;;;24.04;63.34
61898;BME280;47850;50.274;18.908;2022-08-19T06:31:45;97612.35;;;24.05;63.31
61898;BME280;47850;50.274;18.908;2022-08-19T06:34:12;97615.63;;;24.09;63.29
61898;BME280;47850;50.274;18.908;2022-08-19T06:36:42;97618.45;;;24.13;62.90
61898;BME280;47850;50.274;18.908;2022-08-19T06:39:13;97622.20;;;24.16;63.12
61898;BME280;47850;50.274;18.908;2022-08-19T06:41:46;97619.52;;;24.19;62.99
61898;BME280;47850;50.274;18.908;2022-08-19T06:44:14;97623.20;;;24.23;62.57
61898;BME280;47850;50.274;18.908;2022-08-19T06:46:43;97628.40;;;24.26;62.50
61898;BME280;47850;50.274;18.908;2022-08-19T06:49:10;97633.67;;;24.29;62.45
61898;BME280;47850;50.274;18.908;2022-08-19T06:51:41;97644.06;;;24.31;62.78
61898;BME280;47850;50.274;18.908;2022-08-19T06:54:10;97653.31;;;24.34;62.60
61898;BME280;47850;50.274;18.908;2022-08-19T06:56:37;97648.48;;;24.37;62.52
61898;BME280;47850;50.274;18.908;2022-08-19T06:59:07;97650.36;;;24.41;62.23
61898;BME280;47850;50.274;18.908;2022-08-19T07:01:40;97652.77;;;24.44;62.37
61898;BME280;47850;50.274;18.908;2022-08-19T07:04:08;97654.04;;;24.48;62.29
61898;BME280;47850;50.274;18.908;2022-08-19T07:06:36;97650.52;;;24.52;62.20
61898;BME280;47850;50.274;18.908;2022-08-19T07:09:05;97659.96;;;24.55;62.10
61898;BME280;47850;50.274;18.908;2022-08-19T07:11:32;97665.18;;;24.61;62.22
61898;BME280;47850;50.274;18.908;2022-08-19T07:14:00;97671.86;;;24.67;62.05
61898;BME280;47850;50.274;18.908;2022-08-19T07:16:27;97670.04;;;24.72;62.17
61898;BME280;47850;50.274;18.908;2022-08-19T07:18:55;97676.12;;;24.75;62.05
61898;BME280;47850;50.274;18.908;2022-08-19T07:21:26;97680.58;;;24.79;61.58
61898;BME280;47850;50.274;18.908;2022-08-19T07:23:58;97685.36;;;24.83;61.43
61898;BME280;47850;50.274;18.908;2022-08-19T07:26:28;97685.09;;;24.85;61.46
61898;BME280;47850;50.274;18.908;2022-08-19T07:28:55;97688.63;;;24.87;61.67
61898;BME280;47850;50.274;18.908;2022-08-19T07:31:24;97686.59;;;24.90;61.60
61898;BME280;47850;50.274;18.908;2022-08-19T07:33:54;97692.20;;;24.92;61.66
61898;BME280;47850;50.274;18.908;2022-08-19T07:36:26;97700.47;;;24.97;61.76
61898;BME280;47850;50.274;18.908;2022-08-19T07:39:01;97699.64;;;24.99;60.92
61898;BME280;47850;50.274;18.908;2022-08-19T07:41:29;97698.23;;;25.02;61.01
61898;BME280;47850;50.274;18.908;2022-08-19T07:43:58;97697.48;;;25.08;61.04
61898;BME280;47850;50.274;18.908;2022-08-19T07:46:28;97705.34;;;25.14;60.86
61898;BME280;47850;50.274;18.908;2022-08-19T07:48:58;97703.64;;;25.19;60.64
61898;BME280;47850;50.274;18.908;2022-08-19T07:51:25;97699.40;;;25.23;60.81
61898;BME280;47850;50.274;18.908;2022-08-19T07:53:51;97698.38;;;25.30;60.66
61898;BME280;47850;50.274;18.908;2022-08-19T07:56:20;97703.13;;;25.37;60.69
61898;BME280;47850;50.274;18.908;2022-08-19T07:58:49;97705.23;;;25.47;60.56
61898;BME280;47850;50.274;18.908;2022-08-19T08:01:21;97702.23;;;25.57;60.31
61898;BME280;47850;50.274;18.908;2022-08-19T08:03:50;97702.00;;;25.72;60.18
61898;BME280;47850;50.274;18.908;2022-08-19T08:06:35;97706.80;;;25.89;59.82
61898;BME280;47850;50.274;18.908;2022-08-19T08:09:29;97707.16;;;26.08;59.80
61898;BME280;47850;50.274;18.908;2022-08-19T08:12:03;97711.80;;;26.25;59.46
61898;BME280;47850;50.274;18.908;2022-08-19T08:14:34;97710.54;;;26.38;58.69
61898;BME280;47850;50.274;18.908;2022-08-19T08:17:03;97711.30;;;26.46;58.64
61898;BME280;47850;50.274;18.908;2022-08-19T08:19:30;97712.58;;;26.55;58.09
61898;BME280;47850;50.274;18.908;2022-08-19T08:21:59;97707.66;;;26.63;57.92
61898;BME280;47850;50.274;18.908;2022-08-19T08:24:28;97709.10;;;26.76;58.24
61898;BME280;47850;50.274;18.908;2022-08-19T08:26:55;97708.69;;;26.89;57.80
61898;BME280;47850;50.274;18.908;2022-08-19T08:29:22;97707.16;;;27.04;56.99
61898;BME280;47850;50.274;18.908;2022-08-19T08:31:49;97707.02;;;27.18;56.78
61898;BME280;47850;50.274;18.908;2022-08-19T08:34:16;97704.67;;;27.34;56.29
61898;BME280;47850;50.274;18.908;2022-08-19T08:36:45;97700.62;;;27.49;56.11
61898;BME280;47850;50.274;18.908;2022-08-19T08:39:14;97694.52;;;27.67;55.95
61898;BME280;47850;50.274;18.908;2022-08-19T08:42:12;97696.66;;;27.85;55.26
61898;BME280;47850;50.274;18.908;2022-08-19T08:44:53;97698.30;;;28.10;54.53
61898;BME280;47850;50.274;18.908;2022-08-19T08:47:25;97693.98;;;28.30;53.00
61898;BME280;47850;50.274;18.908;2022-08-19T08:50:03;97694.08;;;28.44;52.75
61898;BME280;47850;50.274;18.908;2022-08-19T08:52:35;97690.27;;;28.62;52.46
61898;BME280;47850;50.274;18.908;2022-08-19T08:55:15;97688.27;;;28.82;52.27
61898;BME280;47850;50.274;18.908;2022-08-19T09:00:25;97673.50;;;29.22;51.16
61898;BME280;47850;50.274;18.908;2022-08-19T09:02:55;97673.74;;;29.36;50.27
61898;BME280;47850;50.274;18.908;2022-08-19T09:05:30;97670.16;;;29.46;49.89
61898;BME280;47850;50.274;18.908;2022-08-19T09:08:08;97675.88;;;29.56;49.88
61898;BME280;47850;50.274;18.908;2022-08-19T09:10:44;97673.20;;;29.69;49.11
61898;BME280;47850;50.274;18.908;2022-08-19T09:16:19;97682.39;;;29.93;48.71
61898;BME280;47850;50.274;18.908;2022-08-19T09:18:52;97683.95;;;30.01;48.37
61898;BME280;47850;50.274;18.908;2022-08-19T09:21:21;97686.63;;;30.14;48.41
61898;BME280;47850;50.274;18.908;2022-08-19T09:23:52;97687.14;;;30.25;48.08
61898;BME280;47850;50.274;18.908;2022-08-19T09:26:21;97684.60;;;30.34;48.12
61898;BME280;47850;50.274;18.908;2022-08-19T09:28:50;97682.96;;;30.43;47.37
61898;BME280;47850;50.274;18.908;2022-08-19T09:31:22;97683.80;;;30.54;47.95
61898;BME280;47850;50.274;18.908;2022-08-19T09:33:49;97688.10;;;30.66;47.32
61898;BME280;47850;50.274;18.908;2022-08-19T09:36:18;97691.52;;;30.75;47.01
61898;BME280;47850;50.274;18.908;2022-08-19T09:38:45;97689.15;;;30.83;47.38
61898;BME280;47850;50.274;18.908;2022-08-19T09:41:21;97687.36;;;30.93;46.77
61898;BME280;47850;50.274;18.908;2022-08-19T09:43:51;97688.23;;;31.00;46.62
61898;BME280;47850;50.274;18.908;2022-08-19T09:46:24;97688.43;;;31.06;46.01
61898;BME280;47850;50.274;18.908;2022-08-19T09:48:51;97692.23;;;31.09;46.29
61898;BME280;47850;50.274;18.908;2022-08-19T09:51:22;97695.50;;;31.19;46.40
61898;BME280;47850;50.274;18.908;2022-08-19T09:53:51;97694.80;;;31.29;46.15
61898;BME280;47850;50.274;18.908;2022-08-19T09:56:21;97698.38;;;31.39;45.82
61898;BME280;47850;50.274;18.908;2022-08-19T09:58:48;97696.86;;;31.46;45.22
61898;BME280;47850;50.274;18.908;2022-08-19T10:01:18;97701.10;;;31.53;44.97
61898;BME280;47850;50.274;18.908;2022-08-19T10:03:48;97696.54;;;31.61;44.94
61898;BME280;47850;50.274;18.908;2022-08-19T10:06:16;97697.99;;;31.71;44.44
61898;BME280;47850;50.274;18.908;2022-08-19T10:08:43;97694.73;;;31.72;44.24
61898;BME280;47850;50.274;18.908;2022-08-19T10:11:10;97691.48;;;31.77;44.44
61898;BME280;47850;50.274;18.908;2022-08-19T10:13:37;97694.35;;;31.80;44.02
61898;BME280;47850;50.274;18.908;2022-08-19T10:16:07;97693.55;;;31.74;43.45
61898;BME280;47850;50.274;18.908;2022-08-19T10:18:36;97700.54;;;31.73;43.58
61898;BME280;47850;50.274;18.908;2022-08-19T10:21:07;97695.48;;;31.71;42.83
61898;BME280;47850;50.274;18.908;2022-08-19T10:23:36;97694.25;;;31.70;42.78
61898;BME280;47850;50.274;18.908;2022-08-19T10:26:05;97692.40;;;31.80;42.89
61898;BME280;47850;50.274;18.908;2022-08-19T10:28:34;97685.67;;;31.94;43.20
61898;BME280;47850;50.274;18.908;2022-08-19T10:31:08;97679.67;;;32.17;42.78
61898;BME280;47850;50.274;18.908;2022-08-19T10:33:35;97678.85;;;32.42;41.58
61898;BME280;47850;50.274;18.908;2022-08-19T10:36:10;97679.29;;;32.65;40.97
61898;BME280;47850;50.274;18.908;2022-08-19T10:38:37;97676.88;;;32.96;40.73
61898;BME280;47850;50.274;18.908;2022-08-19T10:41:16;97677.89;;;33.09;38.23
61898;BME280;47850;50.274;18.908;2022-08-19T10:43:44;97672.73;;;33.08;36.63
61898;BME280;47850;50.274;18.908;2022-08-19T10:46:13;97672.74;;;33.05;36.33
61898;BME280;47850;50.274;18.908;2022-08-19T10:48:42;97667.48;;;33.10;36.96
61898;BME280;47850;50.274;18.908;2022-08-19T10:51:10;97665.07;;;33.27;37.12
61898;BME280;47850;50.274;18.908;2022-08-19T10:53:56;97656.38;;;33.40;36.46
61898;BME280;47850;50.274;18.908;2022-08-19T10:56:22;97655.02;;;33.38;36.76
61898;BME280;47850;50.274;18.908;2022-08-19T10:59:09;97649.48;;;33.55;36.77
61898;BME280;47850;50.274;18.908;2022-08-19T11:01:36;97652.71;;;33.71;36.24
61898;BME280;47850;50.274;18.908;2022-08-19T11:04:04;97644.82;;;33.79;36.29
61898;BME280;47850;50.274;18.908;2022-08-19T11:06:32;97636.27;;;33.90;36.07
61898;BME280;47850;50.274;18.908;2022-08-19T11:08:58;97632.89;;;34.07;36.40
61898;BME280;47850;50.274;18.908;2022-08-19T11:11:27;97636.02;;;34.24;36.04
61898;BME280;47850;50.274;18.908;2022-08-19T11:13:54;97639.83;;;34.33;35.52
61898;BME280;47850;50.274;18.908;2022-08-19T11:16:23;97645.63;;;34.42;35.79
61898;BME280;47850;50.274;18.908;2022-08-19T11:18:54;97645.59;;;34.52;35.65
61898;BME280;47850;50.274;18.908;2022-08-19T11:21:28;97647.15;;;34.62;35.46
61898;BME280;47850;50.274;18.908;2022-08-19T11:23:59;97640.61;;;34.67;35.33
61898;BME280;47850;50.274;18.908;2022-08-19T11:26:29;97641.75;;;34.71;34.44
61898;BME280;47850;50.274;18.908;2022-08-19T11:28:57;97644.63;;;34.67;34.65
61898;BME280;47850;50.274;18.908;2022-08-19T11:31:30;97637.27;;;34.70;33.88
61898;BME280;47850;50.274;18.908;2022-08-19T11:33:59;97640.40;;;34.80;34.17
61898;BME280;47850;50.274;18.908;2022-08-19T11:36:26;97635.95;;;35.05;33.23
61898;BME280;47850;50.274;18.908;2022-08-19T11:38:54;97634.81;;;35.32;32.67
61898;BME280;47850;50.274;18.908;2022-08-19T11:41:23;97633.88;;;35.48;31.62
61898;BME280;47850;50.274;18.908;2022-08-19T11:43:51;97632.92;;;35.58;32.11
61898;BME280;47850;50.274;18.908;2022-08-19T11:46:20;97634.73;;;35.79;30.95
61898;BME280;47850;50.274;18.908;2022-08-19T11:48:48;97637.03;;;35.98;31.16
61898;BME280;47850;50.274;18.908;2022-08-19T11:51:18;97641.33;;;35.93;31.36
61898;BME280;47850;50.274;18.908;2022-08-19T11:53:45;97643.96;;;35.72;30.86
61898;BME280;47850;50.274;18.908;2022-08-19T11:56:12;97643.84;;;35.38;31.22
61898;BME280;47850;50.274;18.908;2022-08-19T11:58:39;97645.44;;;35.01;31.11
61898;BME280;47850;50.274;18.908;2022-08-19T12:01:11;97640.54;;;34.65;31.94
61898;BME280;47850;50.274;18.908;2022-08-19T12:03:39;97640.52;;;34.45;32.79
61898;BME280;47850;50.274;18.908;2022-08-19T12:06:08;97636.09;;;34.27;32.55
61898;BME280;47850;50.274;18.908;2022-08-19T12:08:35;97637.04;;;34.09;33.14
61898;BME280;47850;50.274;18.908;2022-08-19T12:11:02;97636.11;;;33.91;33.02
61898;BME280;47850;50.274;18.908;2022-08-19T12:13:30;97633.51;;;33.82;33.86
61898;BME280;47850;50.274;18.908;2022-08-19T12:15:57;97633.38;;;33.87;34.50
61898;BME280;47850;50.274;18.908;2022-08-19T12:18:25;97633.60;;;33.99;34.33
61898;BME280;47850;50.274;18.908;2022-08-19T12:20:53;97632.57;;;34.10;33.93
61898;BME280;47850;50.274;18.908;2022-08-19T12:23:20;97628.58;;;34.22;33.21
61898;BME280;47850;50.274;18.908;2022-08-19T12:25:48;97624.17;;;34.40;33.31
61898;BME280;47850;50.274;18.908;2022-08-19T12:28:23;97615.95;;;34.76;33.42
61898;BME280;47850;50.274;18.908;2022-08-19T12:30:50;97614.73;;;35.13;32.61
61898;BME280;47850;50.274;18.908;2022-08-19T12:33:18;97613.48;;;35.38;32.65
61898;BME280;47850;50.274;18.908;2022-08-19T12:35:46;97611.91;;;35.54;31.72
61898;BME280;47850;50.274;18.908;2022-08-19T12:38:13;97610.10;;;35.59;31.79
61898;BME280;47850;50.274;18.908;2022-08-19T12:40:41;97605.88;;;35.60;31.22
61898;BME280;47850;50.274;18.908;2022-08-19T12:43:08;97605.61;;;35.74;31.84
61898;BME280;47850;50.274;18.908;2022-08-19T12:45:35;97601.80;;;35.95;31.74
61898;BME280;47850;50.274;18.908;2022-08-19T12:48:01;97604.39;;;36.07;31.38
61898;BME280;47850;50.274;18.908;2022-08-19T12:50:29;97602.06;;;36.16;31.10
61898;BME280;47850;50.274;18.908;2022-08-19T12:52:57;97600.67;;;36.30;30.92
61898;BME280;47850;50.274;18.908;2022-08-19T12:55:24;97598.66;;;36.54;29.64
61898;BME280;47850;50.274;18.908;2022-08-19T12:57:51;97600.88;;;36.89;29.54
61898;BME280;47850;50.274;18.908;2022-08-19T13:00:20;97597.98;;;37.23;28.57
61898;BME280;47850;50.274;18.908;2022-08-19T13:02:49;97595.77;;;37.44;28.73
61898;BME280;47850;50.274;18.908;2022-08-19T13:05:22;97592.80;;;37.72;28.34
61898;BME280;47850;50.274;18.908;2022-08-19T13:07:51;97592.81;;;38.15;28.30
61898;BME280;47850;50.274;18.908;2022-08-19T13:10:19;97591.77;;;38.58;27.14